createdAt,value
2019-03-22T00:01:15.258Z,11.20
2019-03-22T00:03:42.889Z,11.30
2019-03-22T00:06:10.900Z,11.20
2019-03-22T00:08:38.823Z,11.20
2019-03-22T00:11:06.916Z,11.20
2019-03-22T00:13:34.760Z,11.20
2019-03-22T00:16:03.895Z,11.20
2019-03-22T00:18:32.155Z,11.20
2019-03-22T00:20:59.548Z,11.20
2019-03-22T00:23:28.728Z,11.20
2019-03-22T00:25:56.568Z,11.20
2019-03-22T00:28:24.093Z,11.20
2019-03-22T00:30:52.727Z,11.20
2019-03-22T00:33:20.386Z,11.20
2019-03-22T00:35:47.972Z,11.10
2019-03-22T00:38:16.669Z,11.00
2019-03-22T00:40:44.175Z,11.10
2019-03-22T00:43:13.355Z,11.00
2019-03-22T00:45:40.908Z,11.10
2019-03-22T00:48:10.635Z,11.10
2019-03-22T00:50:38.027Z,11.10
2019-03-22T00:53:05.432Z,11.10
2019-03-22T00:55:33.595Z,10.90
2019-03-22T00:58:01.255Z,10.80
2019-03-22T01:00:29.463Z,10.80
2019-03-22T01:02:58.767Z,10.90
2019-03-22T01:05:28.220Z,11.00
2019-03-22T01:07:56.311Z,10.90
2019-03-22T01:10:24.551Z,10.90
2019-03-22T01:12:52.883Z,10.80
2019-03-22T01:15:21.305Z,10.90
2019-03-22T01:17:49.235Z,10.90
2019-03-22T01:20:16.847Z,10.90
2019-03-22T01:22:45.687Z,10.80
2019-03-22T01:25:13.399Z,10.90
2019-03-22T01:27:42.450Z,10.80
2019-03-22T01:30:12.669Z,10.80
2019-03-22T01:32:41.603Z,10.80
2019-03-22T01:35:10.772Z,10.70
2019-03-22T01:37:38.411Z,10.70
2019-03-22T01:40:09.155Z,10.70
2019-03-22T01:42:36.903Z,10.60
2019-03-22T01:45:06.291Z,10.70
2019-03-22T01:47:34.188Z,10.70
2019-03-22T01:50:02.238Z,10.70
2019-03-22T01:52:30.627Z,10.80
2019-03-22T01:54:59.123Z,10.80
2019-03-22T01:57:28.177Z,10.80
2019-03-22T01:59:55.676Z,11.20
2019-03-22T02:02:23.735Z,10.70
2019-03-22T02:04:53.027Z,10.70
2019-03-22T02:07:21.311Z,10.70
2019-03-22T02:09:50.347Z,10.70
2019-03-22T02:12:18.003Z,10.80
2019-03-22T02:14:46.247Z,10.80
2019-03-22T02:17:14.287Z,10.70
2019-03-22T02:19:42.702Z,10.60
2019-03-22T02:22:10.287Z,10.70
2019-03-22T02:24:38.343Z,10.70
2019-03-22T02:27:08.039Z,10.70
2019-03-22T02:29:35.779Z,10.60
2019-03-22T02:32:03.706Z,10.60
2019-03-22T02:34:31.364Z,10.70
2019-03-22T02:36:59.796Z,10.70
2019-03-22T02:39:27.619Z,10.70
2019-03-22T02:41:55.380Z,10.70
2019-03-22T02:44:23.297Z,10.70
2019-03-22T02:46:52.131Z,10.70
2019-03-22T02:49:20.041Z,10.60
2019-03-22T02:51:47.705Z,10.60
2019-03-22T02:54:16.897Z,10.50
2019-03-22T02:56:44.431Z,10.50
2019-03-22T02:59:13.301Z,10.50
2019-03-22T03:01:42.305Z,10.40
2019-03-22T03:04:10.440Z,10.40
2019-03-22T03:06:38.049Z,10.50
2019-03-22T03:09:06.448Z,10.50
2019-03-22T03:11:35.668Z,10.50
2019-03-22T03:14:03.598Z,10.40
2019-03-22T03:16:31.825Z,10.50
2019-03-22T03:18:59.625Z,10.50
2019-03-22T03:21:28.763Z,10.40
2019-03-22T03:23:56.314Z,10.50
2019-03-22T03:26:24.601Z,10.50
2019-03-22T03:28:52.988Z,10.40
2019-03-22T03:31:21.023Z,10.40
2019-03-22T03:33:48.853Z,10.40
2019-03-22T03:36:17.616Z,10.40
2019-03-22T03:38:46.204Z,10.40
2019-03-22T03:41:13.842Z,10.40
2019-03-22T03:43:41.837Z,10.50
2019-03-22T03:46:10.353Z,10.50
2019-03-22T03:48:37.903Z,10.40
2019-03-22T03:51:05.814Z,10.40
2019-03-22T03:53:33.981Z,10.50
2019-03-22T03:56:01.420Z,10.40
2019-03-22T03:58:29.665Z,10.30
2019-03-22T04:00:57.885Z,10.40
2019-03-22T04:03:25.869Z,10.40
2019-03-22T04:05:53.564Z,10.40
2019-03-22T04:08:22.423Z,10.40
2019-03-22T04:10:50.998Z,10.40
2019-03-22T04:13:18.588Z,10.30
2019-03-22T04:15:47.299Z,10.30
2019-03-22T04:18:15.779Z,10.50
2019-03-22T04:20:44.621Z,10.50
2019-03-22T04:23:12.106Z,10.40
2019-03-22T04:25:39.636Z,10.30
2019-03-22T04:28:08.564Z,10.30
2019-03-22T04:30:36.673Z,10.40
2019-03-22T04:33:06.558Z,10.30
2019-03-22T04:35:35.404Z,10.30
2019-03-22T04:38:03.305Z,10.30
2019-03-22T04:40:32.461Z,10.40
2019-03-22T04:43:01.479Z,10.40
2019-03-22T04:45:30.564Z,10.40
2019-03-22T04:48:10.903Z,10.30
2019-03-22T04:50:41.615Z,10.30
2019-03-22T04:53:14.383Z,10.20
2019-03-22T04:55:44.479Z,10.10
2019-03-22T04:58:13.556Z,10.20
2019-03-22T05:00:42.596Z,10.30
2019-03-22T05:03:11.847Z,10.30
2019-03-22T05:05:39.947Z,10.30
2019-03-22T05:08:08.712Z,10.10
2019-03-22T05:10:37.251Z,10.20
2019-03-22T05:13:07.980Z,10.10
2019-03-22T05:15:37.958Z,10.20
2019-03-22T05:18:07.371Z,10.20
2019-03-22T05:20:37.263Z,10.20
2019-03-22T05:23:06.699Z,10.20
2019-03-22T05:25:36.052Z,10.20
2019-03-22T05:28:08.456Z,10.10
2019-03-22T05:31:08.696Z,10.10
2019-03-22T05:33:36.743Z,10.10
2019-03-22T05:36:04.939Z,10.00
2019-03-22T05:38:34.489Z,10.00
2019-03-22T05:41:03.879Z,9.90
2019-03-22T05:43:31.395Z,9.80
2019-03-22T05:45:59.403Z,10.00
2019-03-22T05:48:27.036Z,10.10
2019-03-22T05:50:56.167Z,10.10
2019-03-22T05:53:24.206Z,10.10
2019-03-22T05:55:53.095Z,10.20
2019-03-22T05:58:21.051Z,10.20
2019-03-22T06:00:48.815Z,10.20
2019-03-22T06:03:16.497Z,10.20
2019-03-22T06:05:46.023Z,10.10
2019-03-22T06:08:14.169Z,10.10
2019-03-22T06:10:41.687Z,10.10
2019-03-22T06:13:09.226Z,10.10
2019-03-22T06:15:36.913Z,10.10
2019-03-22T06:18:04.728Z,10.00
2019-03-22T06:20:33.812Z,10.10
2019-03-22T06:23:01.303Z,10.20
2019-03-22T06:25:28.760Z,10.30
2019-03-22T06:27:56.284Z,10.20
2019-03-22T06:30:24.987Z,10.20
2019-03-22T06:32:53.624Z,10.30
2019-03-22T06:35:21.136Z,10.30
2019-03-22T06:37:50.096Z,10.30
2019-03-22T06:40:18.035Z,10.40
2019-03-22T06:42:45.910Z,10.40
2019-03-22T06:45:13.533Z,10.40
2019-03-22T06:47:41.070Z,10.40
2019-03-22T06:50:10.527Z,10.40
2019-03-22T06:52:38.200Z,10.50
2019-03-22T06:55:07.115Z,10.60
2019-03-22T06:57:35.968Z,10.60
2019-03-22T07:00:06.862Z,10.60
2019-03-22T07:02:35.126Z,10.70
2019-03-22T07:05:04.107Z,10.70
2019-03-22T07:07:32.236Z,10.70
2019-03-22T07:10:01.220Z,10.80
2019-03-22T07:12:29.739Z,10.90
2019-03-22T07:14:57.787Z,10.90
2019-03-22T07:17:25.827Z,11.00
2019-03-22T07:19:53.795Z,11.10
2019-03-22T07:22:21.447Z,11.10
2019-03-22T07:24:50.329Z,11.10
2019-03-22T07:27:19.466Z,11.20
2019-03-22T07:29:48.526Z,11.20
2019-03-22T07:32:17.098Z,11.30
2019-03-22T07:34:45.452Z,11.40
2019-03-22T07:37:14.323Z,11.50
2019-03-22T07:39:42.272Z,11.50
2019-03-22T07:42:10.550Z,11.60
2019-03-22T07:44:38.833Z,11.70
2019-03-22T07:47:06.996Z,11.60
2019-03-22T07:49:35.916Z,11.80
2019-03-22T07:52:04.404Z,11.80
2019-03-22T07:54:32.368Z,11.80
2019-03-22T07:57:00.712Z,11.90
2019-03-22T07:59:28.995Z,11.90
2019-03-22T08:01:56.658Z,12.00
2019-03-22T08:04:25.749Z,12.00
2019-03-22T08:06:53.737Z,12.00
2019-03-22T08:09:21.252Z,12.10
2019-03-22T08:11:49.171Z,12.10
2019-03-22T08:14:18.011Z,12.20
2019-03-22T08:16:46.655Z,12.20
2019-03-22T08:19:14.731Z,12.20
2019-03-22T08:21:42.763Z,12.30
2019-03-22T08:24:11.483Z,12.30
2019-03-22T08:26:39.087Z,12.40
2019-03-22T08:29:06.988Z,12.40
2019-03-22T08:31:36.867Z,12.40
2019-03-22T08:34:05.199Z,12.50
2019-03-22T08:36:34.619Z,12.50
2019-03-22T08:39:04.447Z,12.60
2019-03-22T08:41:32.365Z,12.60
2019-03-22T08:44:02.849Z,12.70
2019-03-22T08:46:30.988Z,12.80
2019-03-22T08:49:00.501Z,12.80
2019-03-22T08:51:30.023Z,12.80
2019-03-22T08:53:59.523Z,12.80
2019-03-22T08:56:27.796Z,12.90
2019-03-22T08:58:55.885Z,13.00
2019-03-22T09:01:24.856Z,13.00
2019-03-22T09:03:52.731Z,13.00
2019-03-22T09:06:20.680Z,13.10
2019-03-22T09:08:50.195Z,13.10
2019-03-22T09:11:19.543Z,13.10
2019-03-22T09:13:48.099Z,13.20
2019-03-22T09:16:15.876Z,13.20
2019-03-22T09:18:43.875Z,13.20
2019-03-22T09:21:13.236Z,13.20
2019-03-22T09:23:40.960Z,13.20
2019-03-22T09:26:09.064Z,13.20
2019-03-22T09:28:36.679Z,13.20
2019-03-22T09:31:10.127Z,13.20
2019-03-22T09:33:33.612Z,13.10
2019-03-22T09:36:01.863Z,13.20
2019-03-22T09:38:29.427Z,13.20
2019-03-22T09:40:57.159Z,13.20
2019-03-22T09:43:26.344Z,13.10
2019-03-22T09:45:55.065Z,13.20
2019-03-22T09:48:22.653Z,13.20
2019-03-22T09:50:50.394Z,13.20
2019-03-22T09:53:18.345Z,13.20
2019-03-22T09:55:48.095Z,13.20
2019-03-22T09:58:15.585Z,13.20
2019-03-22T10:00:43.727Z,13.20
2019-03-22T10:03:11.259Z,13.20
2019-03-22T10:05:39.826Z,13.20
2019-03-22T10:08:09.211Z,13.20
2019-03-22T10:10:37.713Z,13.20
2019-03-22T10:13:05.441Z,13.20
2019-03-22T10:15:33.615Z,13.20
2019-03-22T10:18:03.656Z,13.20
2019-03-22T10:20:31.263Z,13.20
2019-03-22T10:22:59.318Z,13.30
2019-03-22T10:25:27.270Z,13.30
2019-03-22T10:27:55.581Z,13.30
2019-03-22T10:30:23.742Z,13.30
2019-03-22T10:32:51.879Z,13.30
2019-03-22T10:35:25.940Z,13.30
2019-03-22T10:37:49.541Z,13.30
2019-03-22T10:40:17.512Z,13.30
2019-03-22T10:42:45.013Z,13.20
2019-03-22T10:45:12.607Z,13.40
2019-03-22T10:47:42.095Z,13.40
2019-03-22T10:50:10.798Z,13.40
2019-03-22T10:52:38.641Z,13.40
2019-03-22T10:55:23.037Z,13.50
2019-03-22T10:57:39.982Z,13.50
2019-03-22T11:00:07.119Z,13.60
2019-03-22T11:02:35.562Z,13.60
2019-03-22T11:05:06.370Z,13.60
2019-03-22T11:07:34.929Z,13.60
2019-03-22T11:10:04.743Z,13.60
2019-03-22T11:12:32.159Z,13.60
2019-03-22T11:14:59.888Z,13.60
2019-03-22T11:17:27.416Z,13.60
2019-03-22T11:19:57.552Z,13.60
2019-03-22T11:22:25.156Z,13.70
2019-03-22T11:24:53.627Z,13.70
2019-03-22T11:27:23.199Z,13.70
2019-03-22T11:29:50.795Z,13.70
2019-03-22T11:32:18.603Z,13.70
2019-03-22T11:34:46.271Z,13.70
2019-03-22T11:37:14.873Z,13.70
2019-03-22T11:39:43.816Z,13.70
2019-03-22T11:42:12.077Z,13.80
2019-03-22T11:44:41.135Z,13.80
2019-03-22T11:47:08.911Z,13.80
2019-03-22T11:49:38.176Z,13.90
2019-03-22T11:52:05.989Z,13.90
2019-03-22T11:54:33.735Z,13.90
2019-03-22T11:57:01.256Z,14.00
2019-03-22T11:59:30.375Z,14.00
2019-03-22T12:01:59.338Z,14.10
2019-03-22T12:04:28.555Z,14.10
2019-03-22T12:06:56.087Z,14.10
2019-03-22T12:09:24.731Z,14.20
2019-03-22T12:11:52.449Z,14.20
2019-03-22T12:14:20.400Z,14.20
2019-03-22T12:16:48.056Z,14.20
2019-03-22T12:19:15.696Z,14.30
2019-03-22T12:21:44.055Z,14.30
2019-03-22T12:24:11.575Z,14.40
2019-03-22T12:26:39.364Z,14.40
2019-03-22T12:29:06.896Z,14.40
2019-03-22T12:31:36.440Z,14.50
2019-03-22T12:34:04.407Z,14.50
2019-03-22T12:36:33.592Z,14.50
2019-03-22T12:39:02.403Z,14.50
2019-03-22T12:41:29.899Z,14.60
2019-03-22T12:43:58.207Z,14.70
2019-03-22T12:46:25.739Z,14.70
2019-03-22T12:48:55.264Z,14.70
2019-03-22T12:51:22.924Z,14.70
2019-03-22T12:53:52.364Z,14.70
2019-03-22T12:56:21.971Z,14.80
2019-03-22T12:58:50.752Z,14.80
2019-03-22T13:01:19.980Z,14.80
2019-03-22T13:03:48.047Z,14.80
2019-03-22T13:06:15.679Z,14.90
2019-03-22T13:08:43.256Z,14.80
2019-03-22T13:11:12.639Z,14.90
2019-03-22T13:13:41.671Z,14.90
2019-03-22T13:16:10.947Z,14.90
2019-03-22T13:18:49.638Z,15.00
2019-03-22T13:21:09.248Z,15.00
2019-03-22T13:23:36.867Z,15.00
2019-03-22T13:26:04.767Z,15.10
2019-03-22T13:28:32.712Z,15.00
2019-03-22T13:31:02.114Z,15.10
2019-03-22T13:33:30.191Z,15.10
2019-03-22T13:35:58.399Z,15.10
2019-03-22T13:38:26.424Z,15.10
2019-03-22T13:40:54.441Z,15.10
2019-03-22T13:43:24.320Z,15.10
2019-03-22T13:45:52.963Z,15.10
2019-03-22T13:48:21.280Z,15.10
2019-03-22T13:50:51.121Z,15.20
2019-03-22T13:53:19.231Z,15.20
2019-03-22T13:55:48.650Z,15.20
2019-03-22T13:58:16.924Z,15.20
2019-03-22T14:00:45.652Z,15.20
2019-03-22T14:03:13.153Z,15.20
2019-03-22T14:05:41.158Z,15.20
2019-03-22T14:08:11.203Z,15.20
2019-03-22T14:10:40.725Z,15.20
2019-03-22T14:13:08.530Z,15.20
2019-03-22T14:15:36.232Z,15.20
2019-03-22T14:18:04.461Z,15.20
2019-03-22T14:20:32.004Z,15.20
2019-03-22T14:23:01.086Z,15.10
2019-03-22T14:25:28.715Z,15.10
2019-03-22T14:27:56.295Z,15.10
2019-03-22T14:30:24.039Z,15.10
2019-03-22T14:32:51.695Z,15.10
2019-03-22T14:35:19.647Z,15.10
2019-03-22T14:37:48.400Z,15.10
2019-03-22T14:40:18.359Z,15.00
2019-03-22T14:42:46.733Z,15.00
2019-03-22T14:45:15.377Z,15.00
2019-03-22T14:47:43.355Z,15.00
2019-03-22T14:50:11.462Z,15.00
2019-03-22T14:52:39.139Z,15.00
2019-03-22T14:55:07.143Z,15.00
2019-03-22T14:57:35.258Z,15.00
2019-03-22T15:00:04.519Z,14.90
2019-03-22T15:02:32.087Z,14.90
2019-03-22T15:05:01.867Z,14.90
2019-03-22T15:07:31.283Z,14.90
2019-03-22T15:09:59.371Z,14.90
2019-03-22T15:12:27.338Z,14.90
2019-03-22T15:15:20.975Z,14.90
2019-03-22T15:18:03.712Z,14.90
2019-03-22T15:20:51.124Z,14.90
2019-03-22T15:23:39.031Z,14.90
2019-03-22T15:26:44.476Z,14.90
2019-03-22T15:29:50.673Z,15.00
2019-03-22T15:32:47.915Z,14.90
2019-03-22T15:35:26.975Z,14.90
2019-03-22T15:38:13.392Z,14.90
2019-03-22T15:40:41.094Z,14.90
2019-03-22T15:43:10.171Z,14.90
2019-03-22T15:45:37.903Z,14.90
2019-03-22T15:48:06.420Z,14.90
2019-03-22T15:50:34.215Z,14.90
2019-03-22T15:53:02.036Z,14.90
2019-03-22T15:55:29.947Z,14.90
2019-03-22T15:57:57.941Z,14.90
2019-03-22T16:00:26.088Z,14.90
2019-03-22T16:02:54.255Z,14.90
2019-03-22T16:05:21.927Z,14.90
2019-03-22T16:07:50.462Z,14.90
2019-03-22T16:10:19.065Z,14.90
2019-03-22T16:12:46.948Z,14.90
2019-03-22T16:15:15.858Z,14.80
2019-03-22T16:17:43.430Z,14.80
2019-03-22T16:20:12.101Z,14.90
2019-03-22T16:22:39.727Z,14.90
2019-03-22T16:25:07.855Z,14.90
2019-03-22T16:27:35.802Z,14.90
2019-03-22T16:30:06.347Z,14.80
2019-03-22T16:32:35.628Z,14.80
2019-03-22T16:35:05.003Z,14.80
2019-03-22T16:37:32.908Z,14.80
2019-03-22T16:40:01.921Z,14.80
2019-03-22T16:42:29.723Z,14.80
2019-03-22T16:44:57.233Z,14.70
2019-03-22T16:47:25.044Z,14.70
2019-03-22T16:49:53.059Z,14.70
2019-03-22T16:52:20.811Z,14.70
2019-03-22T16:54:48.987Z,14.70
2019-03-22T16:57:17.062Z,14.70
2019-03-22T16:59:46.011Z,14.70
2019-03-22T17:02:13.524Z,14.70
2019-03-22T17:04:42.857Z,14.70
2019-03-22T17:07:10.367Z,14.70
2019-03-22T17:09:39.463Z,14.70
2019-03-22T17:12:09.035Z,14.70
2019-03-22T17:14:37.263Z,14.70
2019-03-22T17:17:05.067Z,14.60
2019-03-22T17:19:32.483Z,14.60
2019-03-22T17:22:01.019Z,14.60
2019-03-22T17:24:28.555Z,14.60
2019-03-22T17:26:56.212Z,14.60
2019-03-22T17:29:24.661Z,14.60
2019-03-22T17:31:53.380Z,14.60
2019-03-22T17:34:22.236Z,14.60
2019-03-22T17:36:51.151Z,14.50
2019-03-22T17:39:18.819Z,14.50
2019-03-22T17:41:46.848Z,14.60
2019-03-22T17:44:14.469Z,14.50
2019-03-22T17:46:42.416Z,14.50
2019-03-22T17:49:10.639Z,14.50
2019-03-22T17:51:38.847Z,14.40
2019-03-22T17:54:06.235Z,14.40
2019-03-22T17:56:34.563Z,14.40
2019-03-22T17:59:02.515Z,14.40
2019-03-22T18:01:30.775Z,14.40
2019-03-22T18:03:58.787Z,14.30
2019-03-22T18:06:26.923Z,14.40
2019-03-22T18:08:55.895Z,14.30
2019-03-22T18:11:23.815Z,14.30
2019-03-22T18:13:51.667Z,14.30
2019-03-22T18:16:20.107Z,14.30
2019-03-22T18:18:47.854Z,14.20
2019-03-22T18:21:19.941Z,14.20
2019-03-22T18:23:48.967Z,14.20
2019-03-22T18:26:16.503Z,14.10
2019-03-22T18:28:44.961Z,14.10
2019-03-22T18:31:12.471Z,14.00
2019-03-22T18:33:41.281Z,14.10
2019-03-22T18:36:09.055Z,14.00
2019-03-22T18:38:36.772Z,14.00
2019-03-22T18:41:04.727Z,13.90
2019-03-22T18:43:32.946Z,13.80
2019-03-22T18:46:00.964Z,13.80
2019-03-22T18:48:29.524Z,13.80
2019-03-22T18:50:57.315Z,13.70
2019-03-22T18:53:24.816Z,13.80
2019-03-22T18:55:53.926Z,13.80
2019-03-22T18:58:23.789Z,13.70
2019-03-22T19:00:51.952Z,13.60
2019-03-22T19:03:20.492Z,13.60
2019-03-22T19:05:49.675Z,13.50
2019-03-22T19:08:17.531Z,13.60
2019-03-22T19:10:45.683Z,13.60
2019-03-22T19:13:15.952Z,13.60
2019-03-22T19:15:44.794Z,13.50
2019-03-22T19:18:12.567Z,13.50
2019-03-22T19:20:40.504Z,13.40
2019-03-22T19:23:08.047Z,13.40
2019-03-22T19:25:36.862Z,13.40
2019-03-22T19:28:04.459Z,13.40
2019-03-22T19:30:32.933Z,13.30
2019-03-22T19:33:00.527Z,13.20
2019-03-22T19:35:28.871Z,13.20
2019-03-22T19:37:58.087Z,13.30
2019-03-22T19:40:26.241Z,13.30
2019-03-22T19:42:54.440Z,13.30
2019-03-22T19:45:22.021Z,13.30
2019-03-22T19:47:50.731Z,13.20
2019-03-22T19:50:18.363Z,13.20
2019-03-22T19:52:46.896Z,13.10
2019-03-22T19:55:15.359Z,13.10
2019-03-22T19:57:43.781Z,13.20
2019-03-22T20:00:12.540Z,13.20
2019-03-22T20:02:40.619Z,13.10
2019-03-22T20:05:09.235Z,13.20
2019-03-22T20:07:37.288Z,13.20
2019-03-22T20:10:06.408Z,13.10
2019-03-22T20:12:34.089Z,13.20
2019-03-22T20:15:03.123Z,13.20
2019-03-22T20:17:30.667Z,13.10
2019-03-22T20:20:01.428Z,13.10
2019-03-22T20:22:29.719Z,13.10
2019-03-22T20:24:58.077Z,13.00
2019-03-22T20:27:25.732Z,13.00
2019-03-22T20:29:53.952Z,13.10
2019-03-22T20:32:21.431Z,13.00
2019-03-22T20:34:50.002Z,13.00
2019-03-22T20:37:17.671Z,13.00
2019-03-22T20:39:45.201Z,13.00
2019-03-22T20:42:12.834Z,13.00
2019-03-22T20:44:40.500Z,12.90
2019-03-22T20:47:08.363Z,12.90
2019-03-22T20:49:37.912Z,13.00
2019-03-22T20:52:06.205Z,12.90
2019-03-22T20:54:34.956Z,12.90
2019-03-22T20:57:03.346Z,12.90
2019-03-22T20:59:31.333Z,12.90
2019-03-22T21:01:59.080Z,12.80
2019-03-22T21:04:28.443Z,12.80
2019-03-22T21:06:56.368Z,12.80
2019-03-22T21:09:24.303Z,12.80
2019-03-22T21:11:52.472Z,12.80
2019-03-22T21:14:20.710Z,12.80
2019-03-22T21:16:49.638Z,12.80
2019-03-22T21:19:17.873Z,12.80
2019-03-22T21:21:46.335Z,12.70
2019-03-22T21:24:15.307Z,12.60
2019-03-22T21:26:43.172Z,12.70
2019-03-22T21:29:10.932Z,12.70
2019-03-22T21:31:39.127Z,12.60
2019-03-22T21:34:07.176Z,12.60
2019-03-22T21:36:35.352Z,12.60
2019-03-22T21:39:06.004Z,12.60
2019-03-22T21:41:33.501Z,12.60
2019-03-22T21:44:02.273Z,12.60
2019-03-22T21:46:30.231Z,12.60
2019-03-22T21:48:57.931Z,12.60
2019-03-22T21:51:26.984Z,12.60
2019-03-22T21:53:54.898Z,12.60
2019-03-22T21:56:22.455Z,12.60
2019-03-22T21:58:50.219Z,12.50
2019-03-22T22:01:17.943Z,12.50
2019-03-22T22:03:46.487Z,12.50
2019-03-22T22:06:16.211Z,12.40
2019-03-22T22:08:44.363Z,12.50
2019-03-22T22:11:13.819Z,12.50
2019-03-22T22:13:42.912Z,12.40
2019-03-22T22:16:12.183Z,12.50
2019-03-22T22:18:41.012Z,12.50
2019-03-22T22:21:08.900Z,12.50
2019-03-22T22:23:36.887Z,12.50
2019-03-22T22:26:05.004Z,12.50
2019-03-22T22:28:32.556Z,12.50
2019-03-22T22:31:00.008Z,12.50
2019-03-22T22:33:29.431Z,12.40
2019-03-22T22:35:58.917Z,12.40
2019-03-22T22:38:26.795Z,12.40
2019-03-22T22:40:54.555Z,12.30
2019-03-22T22:43:22.703Z,12.20
2019-03-22T22:45:51.128Z,12.20
2019-03-22T22:48:18.503Z,12.10
2019-03-22T22:50:46.294Z,12.00
2019-03-22T22:53:15.659Z,12.00
2019-03-22T22:55:44.056Z,12.00
2019-03-22T22:58:13.735Z,11.90
2019-03-22T23:00:42.179Z,11.80
2019-03-22T23:03:09.907Z,12.00
2019-03-22T23:05:38.807Z,12.00
2019-03-22T23:08:06.999Z,12.10
2019-03-22T23:10:35.239Z,12.00
2019-03-22T23:13:04.576Z,11.90
2019-03-22T23:15:34.391Z,11.90
2019-03-22T23:18:02.107Z,11.80
2019-03-22T23:20:29.879Z,11.90
2019-03-22T23:22:57.579Z,11.90
2019-03-22T23:25:26.327Z,11.90
2019-03-22T23:27:55.611Z,11.80
2019-03-22T23:30:23.672Z,11.80
2019-03-22T23:32:51.917Z,11.80
2019-03-22T23:35:20.293Z,11.90
2019-03-22T23:37:48.548Z,11.80
2019-03-22T23:40:16.435Z,11.70
2019-03-22T23:42:44.607Z,11.60
2019-03-22T23:45:14.188Z,11.60
2019-03-22T23:47:43.663Z,11.70
2019-03-22T23:50:13.254Z,11.60
2019-03-22T23:52:40.671Z,11.60
2019-03-22T23:55:10.504Z,11.60
2019-03-22T23:57:38.151Z,11.60
